Schram City, Illinois
Current Conditions -  °F | °C
As of 2:35 AM on Saturday 20 Dec 2014 (Local Time) from K3LF Reporting Station
Overcast Overcast  
Wind Chill: 31°   Ceiling: 5000
Heat Index: 31°   Visibility: 10mi
Dew Point: 25°   Wind: 0mph
Humidity: 77%   Direction: NA
Pressure: 30.26"   Gusts: NA
Location:  39.1415°N, 89.5029°W
Report Text: K3LF 200835Z AUTO 00000KT 10SM OVC050 00/M04 A3026 RMK AO2 T10051040
Loading
Personal Weather Stations






























Interactive Weather Map New forecast layout! Learn more

10-Day Weather Forecast

Advertisements
Track Severe Weather on mobile